createdAt,value
2023-05-07T00:01:46.220Z,12.03
2023-05-07T00:06:49.028Z,11.92
2023-05-07T00:11:51.664Z,11.96
2023-05-07T00:16:54.500Z,11.91
2023-05-07T00:21:57.699Z,11.83
2023-05-07T00:27:00.336Z,11.79
2023-05-07T00:32:02.922Z,11.76
2023-05-07T00:37:06.705Z,11.73
2023-05-07T00:42:10.101Z,11.70
2023-05-07T00:47:16.070Z,11.71
2023-05-07T00:52:21.280Z,11.74
2023-05-07T00:57:26.585Z,11.81
2023-05-07T01:02:29.224Z,11.84
2023-05-07T01:07:32.125Z,11.78
2023-05-07T01:12:36.691Z,11.86
2023-05-07T01:17:44.026Z,11.86
2023-05-07T01:23:12.012Z,11.76
2023-05-07T01:28:15.052Z,11.72
2023-05-07T01:33:25.444Z,11.69
2023-05-07T01:38:29.725Z,11.76
2023-05-07T01:43:32.458Z,11.66
2023-05-07T01:48:36.192Z,11.55
2023-05-07T01:53:39.488Z,11.63
2023-05-07T01:58:42.213Z,11.57
2023-05-07T02:03:45.100Z,11.45
2023-05-07T02:08:56.104Z,11.37
2023-05-07T02:13:58.878Z,11.30
2023-05-07T02:19:01.679Z,11.31
2023-05-07T02:24:04.594Z,11.31
2023-05-07T02:29:08.333Z,11.44
2023-05-07T02:34:12.578Z,11.48
2023-05-07T02:39:16.792Z,11.46
2023-05-07T02:44:19.546Z,11.52
2023-05-07T02:49:25.810Z,11.54
2023-05-07T02:54:28.447Z,11.56
2023-05-07T02:59:31.350Z,11.68
2023-05-07T03:04:34.057Z,11.69
2023-05-07T03:09:36.874Z,11.76
2023-05-07T03:14:40.123Z,11.82
2023-05-07T03:19:42.840Z,11.84
2023-05-07T03:24:45.706Z,11.96
2023-05-07T03:29:48.202Z,11.99
2023-05-07T03:34:51.928Z,12.00
2023-05-07T03:39:56.908Z,12.12
2023-05-07T03:44:59.895Z,12.07
2023-05-07T03:50:02.852Z,12.12
2023-05-07T03:55:07.580Z,12.29
2023-05-07T04:00:14.987Z,12.36
2023-05-07T04:05:23.585Z,12.37
2023-05-07T04:10:30.994Z,12.14
2023-05-07T04:15:37.008Z,12.29
2023-05-07T04:20:43.092Z,12.38
2023-05-07T04:25:48.854Z,12.10
2023-05-07T04:31:01.215Z,12.08
2023-05-07T04:36:05.873Z,12.06
2023-05-07T04:41:14.825Z,12.06
2023-05-07T04:46:17.850Z,12.15
2023-05-07T04:51:21.158Z,12.33
2023-05-07T04:56:24.006Z,12.37
2023-05-07T05:01:27.457Z,12.18
2023-05-07T05:06:33.866Z,12.20
2023-05-07T05:11:40.261Z,12.47
2023-05-07T05:16:43.004Z,12.78
2023-05-07T05:21:46.897Z,12.78
2023-05-07T05:26:49.693Z,12.64
2023-05-07T05:31:52.793Z,12.92
2023-05-07T05:36:55.590Z,13.33
2023-05-07T05:41:58.174Z,13.23
2023-05-07T05:47:01.618Z,12.86
2023-05-07T05:52:05.657Z,12.90
2023-05-07T05:57:08.390Z,13.04
2023-05-07T06:02:11.212Z,13.11
2023-05-07T06:07:14.096Z,13.50
2023-05-07T06:12:17.545Z,13.86
2023-05-07T06:17:21.843Z,13.91
2023-05-07T06:22:26.596Z,14.04
2023-05-07T06:27:30.547Z,13.97
2023-05-07T06:32:34.459Z,13.66
2023-05-07T06:37:39.562Z,13.15
2023-05-07T06:42:44.393Z,13.35
2023-05-07T06:48:19.234Z,13.83
2023-05-07T06:53:30.626Z,14.33
2023-05-07T06:58:35.608Z,14.73
2023-05-07T07:03:38.352Z,14.75
2023-05-07T07:08:41.483Z,14.63
2023-05-07T07:13:44.450Z,14.35
2023-05-07T07:18:47.172Z,14.52
2023-05-07T07:23:50.121Z,14.74
2023-05-07T07:28:53.685Z,14.72
2023-05-07T07:33:58.352Z,14.72
2023-05-07T07:39:03.809Z,14.89
2023-05-07T07:44:08.792Z,14.94
2023-05-07T07:49:13.622Z,15.02
2023-05-07T07:54:16.289Z,15.11
2023-05-07T07:59:20.236Z,15.17
2023-05-07T08:04:25.366Z,15.79
2023-05-07T08:09:29.512Z,16.48
2023-05-07T08:14:37.654Z,16.27
2023-05-07T08:19:41.978Z,17.22
2023-05-07T08:24:47.965Z,17.52
2023-05-07T08:29:51.227Z,18.02
2023-05-07T08:34:56.159Z,18.17
2023-05-07T08:39:58.955Z,18.34
2023-05-07T08:45:11.765Z,18.67
2023-05-07T08:50:18.851Z,18.29
2023-05-07T08:55:22.211Z,18.80
2023-05-07T09:00:25.758Z,18.87
2023-05-07T09:05:30.734Z,18.91
2023-05-07T09:10:36.337Z,19.10
2023-05-07T09:15:40.164Z,18.59
2023-05-07T09:20:44.008Z,18.56
2023-05-07T09:25:47.140Z,18.20
2023-05-07T09:30:57.469Z,17.60
2023-05-07T09:36:03.146Z,17.50
2023-05-07T09:41:08.017Z,17.49
2023-05-07T09:46:21.616Z,17.92
2023-05-07T09:51:35.622Z,18.34
2023-05-07T09:56:43.223Z,18.79
2023-05-07T10:01:47.449Z,18.42
2023-05-07T10:06:50.999Z,18.25
2023-05-07T10:11:57.705Z,18.21
2023-05-07T10:17:03.768Z,18.02
2023-05-07T10:22:08.424Z,17.96
2023-05-07T10:27:18.430Z,18.03
2023-05-07T10:32:46.647Z,18.13
2023-05-07T10:37:56.894Z,18.11
2023-05-07T10:43:10.621Z,17.84
2023-05-07T10:48:30.613Z,17.30
2023-05-07T10:53:39.573Z,16.93
2023-05-07T10:58:52.170Z,16.75
2023-05-07T11:04:18.953Z,16.59
2023-05-07T11:09:59.774Z,16.38
2023-05-07T11:15:17.170Z,16.11
2023-05-07T11:20:20.911Z,16.01
2023-05-07T11:25:31.265Z,15.97
2023-05-07T11:30:44.170Z,16.07
2023-05-07T11:35:51.982Z,16.10
2023-05-07T11:41:00.210Z,16.11
2023-05-07T11:46:11.565Z,16.05
2023-05-07T11:51:14.826Z,15.90
2023-05-07T11:56:19.962Z,15.93
2023-05-07T12:01:22.541Z,15.94
2023-05-07T12:06:25.049Z,15.98
2023-05-07T12:11:28.766Z,15.93
2023-05-07T12:16:32.239Z,15.72
2023-05-07T12:21:35.168Z,15.68
2023-05-07T12:26:41.940Z,15.54
2023-05-07T12:31:44.930Z,15.40
2023-05-07T12:36:49.666Z,15.26
2023-05-07T12:42:00.554Z,15.19
2023-05-07T12:47:03.751Z,15.06
2023-05-07T12:52:07.461Z,14.95
2023-05-07T12:57:10.956Z,14.80
2023-05-07T13:02:13.667Z,14.64
2023-05-07T13:07:34.745Z,14.40
2023-05-07T13:12:37.584Z,14.14
2023-05-07T13:17:40.335Z,14.12
2023-05-07T13:22:43.223Z,14.04
2023-05-07T13:27:46.746Z,13.94
2023-05-07T13:32:53.579Z,13.84
2023-05-07T13:37:56.829Z,13.66
2023-05-07T13:43:01.011Z,13.51
2023-05-07T13:48:07.260Z,13.36
2023-05-07T13:53:10.024Z,13.06
2023-05-07T13:58:15.336Z,12.81
2023-05-07T14:03:18.997Z,12.66
2023-05-07T14:08:22.132Z,12.51
2023-05-07T14:13:24.811Z,12.32
2023-05-07T14:18:30.020Z,12.19
2023-05-07T14:23:35.564Z,12.12
2023-05-07T14:28:40.771Z,12.02
2023-05-07T14:33:43.539Z,11.96
2023-05-07T14:38:46.195Z,11.93
2023-05-07T14:43:51.280Z,11.84
2023-05-07T14:48:57.396Z,11.72
2023-05-07T14:54:00.152Z,11.62
2023-05-07T14:59:04.260Z,11.62
2023-05-07T15:04:07.418Z,11.61
2023-05-07T15:09:10.366Z,11.55
2023-05-07T15:14:13.098Z,11.49
2023-05-07T15:19:18.474Z,11.55
2023-05-07T15:24:21.380Z,11.56
2023-05-07T15:29:23.969Z,11.56
2023-05-07T15:34:26.634Z,11.47
2023-05-07T15:39:29.563Z,11.43
2023-05-07T15:44:35.541Z,11.27
2023-05-07T15:49:41.407Z,11.26
2023-05-07T15:54:44.027Z,11.20
2023-05-07T15:59:46.711Z,11.20
2023-05-07T16:04:49.835Z,11.17
2023-05-07T16:09:52.704Z,11.11
2023-05-07T16:14:55.313Z,11.09
2023-05-07T16:19:59.423Z,11.11
2023-05-07T16:25:02.860Z,11.10
2023-05-07T16:35:27.503Z,10.90
2023-05-07T16:40:30.032Z,10.74
2023-05-07T16:45:51.088Z,10.61
2023-05-07T16:50:53.869Z,10.45
2023-05-07T16:55:56.919Z,10.33
2023-05-07T17:01:00.122Z,10.12
2023-05-07T17:06:02.876Z,10.04
2023-05-07T17:11:05.776Z,10.05
2023-05-07T17:16:08.529Z,10.09
2023-05-07T17:21:11.254Z,10.10
2023-05-07T17:26:15.257Z,10.12
2023-05-07T17:31:17.954Z,10.15
2023-05-07T17:36:20.661Z,10.21
2023-05-07T17:41:23.258Z,10.25
2023-05-07T17:46:26.099Z,10.31
2023-05-07T17:51:36.136Z,10.37
2023-05-07T17:56:45.178Z,10.41
2023-05-07T18:01:48.064Z,10.43
2023-05-07T18:07:11.021Z,10.43
2023-05-07T18:12:15.211Z,10.47
2023-05-07T18:17:17.807Z,10.55
2023-05-07T18:22:20.560Z,10.65
2023-05-07T18:27:23.247Z,10.69
2023-05-07T18:32:26.031Z,10.69
2023-05-07T18:37:30.283Z,10.76
2023-05-07T18:42:35.271Z,10.72
2023-05-07T18:47:39.591Z,10.78
2023-05-07T18:52:42.198Z,10.80
2023-05-07T18:57:45.675Z,10.77
2023-05-07T19:02:48.318Z,10.82
2023-05-07T19:07:51.402Z,10.85
2023-05-07T19:12:56.001Z,10.67
2023-05-07T19:17:59.761Z,10.87
2023-05-07T19:23:03.453Z,10.89
2023-05-07T19:28:06.258Z,10.89
2023-05-07T19:33:10.119Z,10.91
2023-05-07T19:38:15.797Z,10.91
2023-05-07T19:43:18.308Z,10.92
2023-05-07T19:48:21.525Z,10.95
2023-05-07T19:53:24.190Z,10.92
2023-05-07T19:58:26.881Z,10.93
2023-05-07T20:03:33.641Z,10.89
2023-05-07T20:08:36.441Z,10.88
2023-05-07T20:13:39.012Z,10.90
2023-05-07T20:18:41.606Z,10.85
2023-05-07T20:23:44.305Z,10.85
2023-05-07T20:28:47.038Z,10.75
2023-05-07T20:33:49.649Z,10.69
2023-05-07T20:38:52.837Z,10.57
2023-05-07T20:43:55.548Z,10.56
2023-05-07T20:48:58.875Z,10.58
2023-05-07T20:54:01.458Z,10.53
2023-05-07T20:59:04.063Z,10.52
2023-05-07T21:04:08.961Z,10.51
2023-05-07T21:09:11.712Z,10.53
2023-05-07T21:14:14.331Z,10.48
2023-05-07T21:19:16.949Z,10.49
2023-05-07T21:24:19.509Z,10.49
2023-05-07T21:29:22.538Z,10.45
2023-05-07T21:34:25.149Z,10.45
2023-05-07T21:39:27.677Z,10.38
2023-05-07T21:44:32.083Z,10.40
2023-05-07T21:49:34.744Z,10.40
2023-05-07T21:54:37.322Z,10.37
2023-05-07T21:59:39.937Z,10.38
2023-05-07T22:04:43.638Z,10.37
2023-05-07T22:09:46.143Z,10.26
2023-05-07T22:14:48.900Z,10.17
2023-05-07T22:19:52.810Z,10.11
2023-05-07T22:24:55.393Z,10.03
2023-05-07T22:29:58.066Z,10.03
2023-05-07T22:35:04.930Z,10.09
2023-05-07T22:40:09.432Z,10.07
2023-05-07T22:45:12.476Z,10.10
2023-05-07T22:50:18.104Z,10.00
2023-05-07T22:55:20.700Z,10.01
2023-05-07T23:00:23.531Z,10.05
2023-05-07T23:05:26.117Z,10.07
2023-05-07T23:10:28.675Z,10.04
2023-05-07T23:15:33.475Z,10.05
2023-05-07T23:20:36.634Z,9.97
2023-05-07T23:25:39.237Z,9.92
2023-05-07T23:30:41.830Z,9.93
2023-05-07T23:35:44.369Z,9.88
2023-05-07T23:40:46.944Z,9.84
2023-05-07T23:45:52.782Z,9.83
2023-05-07T23:50:55.584Z,9.77
2023-05-07T23:55:58.093Z,9.73
